Time;durP1;ratioP1;P1;durP2;ratioP2;P2;SDS_P1;SDS_P2;PMS_P1;PMS_P2;Temp;Humidity;BMP_temperature;BMP_pressure;BME280_temperature;BME280_humidity;BME280_pressure;Samples;Min_cycle;Max_cycle;Signal;HPM_P1;HPM_P2
2021/12/28 00:01:05;;;;;;;;;;;9.80;99.90;;;;;;4980780;28;20024;-67
2021/12/28 00:03:32;;;;;;;;;;;9.80;99.90;;;;;;4979676;28;19937;-68
2021/12/28 00:06:00;;;;;;;;;;;9.80;99.90;;;;;;4974355;28;19930;-68
2021/12/28 00:08:28;;;;;;;;;;;9.90;99.90;;;;;;4979258;28;20447;-69
2021/12/28 00:10:56;;;;;;;;;;;9.90;99.90;;;;;;4976082;28;20033;-68
2021/12/28 00:13:23;;;;;;;;;;;9.90;99.90;;;;;;4978816;28;19942;-68
2021/12/28 00:16:01;;;;;;;;;;;9.90;99.90;;;;;;4974166;28;20363;-69
2021/12/28 00:18:28;;;;;;;;;;;9.90;99.90;;;;;;4977466;28;19929;-69
2021/12/28 00:20:56;;;;;;;;;;;10.00;99.90;;;;;;4979472;28;20014;-69
2021/12/28 00:23:24;;;;;;;;;;;10.00;99.90;;;;;;4981858;28;19933;-68
2021/12/28 00:25:53;;;;;;;;;;;10.00;99.90;;;;;;4976803;28;19940;-68
2021/12/28 00:28:20;;;;;;;;;;;10.00;99.90;;;;;;4978994;28;19934;-69
2021/12/28 00:30:47;;;;;;;;;;;10.00;99.90;;;;;;4976562;28;20020;-68
2021/12/28 00:33:14;;;;;;;;;;;10.00;99.90;;;;;;4981307;28;20403;-68
2021/12/28 00:35:41;;;;;;;;;;;10.00;99.90;;;;;;4980260;28;20389;-68
2021/12/28 00:38:08;;;;;;;;;;;10.00;99.90;;;;;;4979468;28;19980;-69
2021/12/28 00:40:36;;;;;;;;;;;10.00;99.90;;;;;;4976228;28;19932;-68
2021/12/28 00:43:04;;;;;;;;;;;10.00;99.90;;;;;;4980435;28;20380;-68
2021/12/28 00:45:31;;;;;;;;;;;10.10;99.90;;;;;;4977718;28;19926;-68
2021/12/28 00:47:58;;;;;;;;;;;10.00;99.90;;;;;;4978176;28;20301;-68
2021/12/28 00:50:26;;;;;;;;;;;10.10;99.90;;;;;;4978488;28;20338;-68
2021/12/28 00:52:55;;;;;;;;;;;10.10;99.90;;;;;;4974686;28;20315;-69
2021/12/28 00:55:22;;;;;;;;;;;10.00;99.90;;;;;;4981574;28;19926;-69
2021/12/28 00:57:49;;;;;;;;;;;10.10;99.90;;;;;;4976285;28;19933;-69
2021/12/28 01:00:18;;;;;;;;;;;10.10;99.90;;;;;;4973854;28;20014;-69
2021/12/28 01:02:45;;;;;;;;;;;10.10;99.90;;;;;;4978987;28;20023;-69
2021/12/28 01:05:12;;;;;;;;;;;10.00;99.90;;;;;;4981844;28;20024;-69
2021/12/28 01:07:39;;;;;;;;;;;10.10;99.90;;;;;;4977196;28;19940;-69
2021/12/28 01:10:07;;;;;;;;;;;10.10;99.90;;;;;;4975535;28;19925;-69
2021/12/28 01:12:33;;;;;;;;;;;10.10;99.90;;;;;;4974955;28;19932;-69
2021/12/28 01:15:00;;;;;;;;;;;10.10;99.90;;;;;;4982196;28;19965;-69
2021/12/28 01:17:28;;;;;;;;;;;10.10;99.90;;;;;;4983870;28;19925;-69
2021/12/28 01:19:55;;;;;;;;;;;10.10;99.90;;;;;;4981738;28;19932;-69
2021/12/28 01:22:22;;;;;;;;;;;10.00;99.90;;;;;;4980409;28;20013;-68
2021/12/28 01:24:48;;;;;;;;;;;10.00;99.90;;;;;;4978745;28;19926;-68
2021/12/28 01:27:15;;;;;;;;;;;10.00;99.90;;;;;;4977433;28;20014;-69
2021/12/28 01:29:42;;;;;;;;;;;10.00;99.90;;;;;;4975089;28;20456;-69
2021/12/28 01:32:09;;;;;;;;;;;10.10;99.90;;;;;;4977004;28;19932;-68
2021/12/28 01:34:37;;;;;;;;;;;10.10;99.90;;;;;;4975941;28;19949;-68
2021/12/28 01:37:04;;;;;;;;;;;10.10;99.90;;;;;;4975761;28;19966;-68
2021/12/28 01:39:31;;;;;;;;;;;10.10;99.90;;;;;;4970707;28;19926;-69
2021/12/28 01:41:59;;;;;;;;;;;10.10;99.90;;;;;;4976866;28;20008;-68
2021/12/28 01:44:25;;;;;;;;;;;10.10;99.90;;;;;;4972978;28;20353;-68
2021/12/28 01:46:52;;;;;;;;;;;10.10;99.90;;;;;;4979178;28;19925;-68
2021/12/28 01:49:19;;;;;;;;;;;10.10;99.90;;;;;;4976391;28;20024;-69
2021/12/28 01:51:47;;;;;;;;;;;10.20;99.90;;;;;;4978320;28;19934;-69
2021/12/28 01:54:13;;;;;;;;;;;10.20;99.90;;;;;;4979100;28;20020;-69
2021/12/28 01:56:42;;;;;;;;;;;10.20;99.90;;;;;;4975052;28;19934;-69
2021/12/28 01:59:10;;;;;;;;;;;10.20;99.90;;;;;;4980523;28;19996;-69
2021/12/28 02:01:37;;;;;;;;;;;10.30;99.90;;;;;;4976270;28;20355;-69
2021/12/28 02:04:12;;;;;;;;;;;10.30;99.90;;;;;;4983006;28;20588;-69
2021/12/28 02:06:39;;;;;;;;;;;10.30;99.90;;;;;;4977813;28;19932;-68
2021/12/28 02:09:07;;;;;;;;;;;10.30;99.90;;;;;;4983814;28;20300;-69
2021/12/28 02:11:33;;;;;;;;;;;10.30;99.90;;;;;;4987732;28;19972;-69
2021/12/28 02:14:01;;;;;;;;;;;10.30;99.90;;;;;;4986900;28;20620;-69
2021/12/28 02:16:28;;;;;;;;;;;10.20;99.90;;;;;;4983607;28;20014;-68
2021/12/28 02:18:54;;;;;;;;;;;10.20;99.90;;;;;;4989657;28;20020;-69
2021/12/28 02:21:22;;;;;;;;;;;10.10;99.90;;;;;;4986588;28;19928;-69
2021/12/28 02:23:49;;;;;;;;;;;10.10;99.90;;;;;;4984067;28;19926;-69
2021/12/28 02:26:16;;;;;;;;;;;10.10;99.90;;;;;;4986114;28;19933;-69
2021/12/28 02:28:42;;;;;;;;;;;10.10;99.90;;;;;;4985108;28;19933;-69
2021/12/28 02:31:09;;;;;;;;;;;10.00;99.90;;;;;;4980615;28;20046;-69
2021/12/28 02:33:36;;;;;;;;;;;10.00;99.90;;;;;;4983281;28;19934;-70
2021/12/28 02:36:04;;;;;;;;;;;10.00;99.90;;;;;;4975515;28;19941;-68
2021/12/28 02:38:33;;;;;;;;;;;10.10;99.90;;;;;;4989309;28;20008;-69
2021/12/28 02:41:00;;;;;;;;;;;10.00;99.90;;;;;;4989020;28;20009;-69
2021/12/28 02:43:27;;;;;;;;;;;10.10;99.90;;;;;;4987209;28;19932;-68
2021/12/28 02:45:54;;;;;;;;;;;10.10;99.90;;;;;;4978893;28;19926;-68
2021/12/28 02:48:22;;;;;;;;;;;10.10;99.90;;;;;;4983780;28;19948;-68
2021/12/28 02:50:50;;;;;;;;;;;10.10;99.90;;;;;;4988913;28;19926;-69
2021/12/28 02:53:18;;;;;;;;;;;10.10;99.90;;;;;;4981507;28;19932;-69
2021/12/28 02:55:46;;;;;;;;;;;10.10;99.90;;;;;;4994586;28;19933;-69
2021/12/28 02:58:22;;;;;;;;;;;10.10;99.90;;;;;;4994028;28;19925;-72
2021/12/28 03:00:51;;;;;;;;;;;10.10;99.90;;;;;;4985178;28;19933;-69
2021/12/28 03:03:20;;;;;;;;;;;10.10;99.90;;;;;;4984705;28;19938;-69
2021/12/28 03:05:48;;;;;;;;;;;10.00;99.90;;;;;;4986946;28;19926;-69
2021/12/28 03:08:16;;;;;;;;;;;10.00;99.90;;;;;;4992353;28;19926;-70
2021/12/28 03:10:44;;;;;;;;;;;10.00;99.90;;;;;;4988663;28;19950;-70
2021/12/28 03:13:15;;;;;;;;;;;10.00;99.90;;;;;;4986132;28;19926;-69
2021/12/28 03:15:41;;;;;;;;;;;10.00;99.90;;;;;;4976930;28;20395;-69
2021/12/28 03:18:08;;;;;;;;;;;9.90;99.90;;;;;;4986046;28;20476;-70
2021/12/28 03:20:35;;;;;;;;;;;9.90;99.90;;;;;;4976709;28;19926;-69
2021/12/28 03:23:02;;;;;;;;;;;9.90;99.90;;;;;;4989985;28;19926;-69
2021/12/28 03:25:28;;;;;;;;;;;9.90;99.90;;;;;;4974621;28;19933;-69
2021/12/28 03:27:55;;;;;;;;;;;9.90;99.90;;;;;;4988997;28;19926;-69
2021/12/28 03:30:23;;;;;;;;;;;9.90;99.90;;;;;;4977737;28;19926;-69
2021/12/28 03:32:51;;;;;;;;;;;9.90;99.90;;;;;;4986775;28;20333;-69
2021/12/28 03:35:17;;;;;;;;;;;9.90;99.90;;;;;;4991288;28;19926;-69
2021/12/28 03:37:44;;;;;;;;;;;9.80;99.90;;;;;;4980755;28;19926;-69
2021/12/28 03:40:15;;;;;;;;;;;9.80;99.90;;;;;;4989273;28;20028;-69
2021/12/28 03:42:42;;;;;;;;;;;9.80;99.90;;;;;;4976105;28;20448;-69
2021/12/28 03:45:09;;;;;;;;;;;9.80;99.90;;;;;;4987693;28;19925;-69
2021/12/28 03:47:38;;;;;;;;;;;9.80;99.90;;;;;;4987497;28;20005;-69
2021/12/28 03:50:07;;;;;;;;;;;9.90;99.90;;;;;;4977985;28;20009;-69
2021/12/28 03:52:34;;;;;;;;;;;9.90;99.90;;;;;;4976280;28;20072;-69
2021/12/28 03:55:00;;;;;;;;;;;9.90;99.90;;;;;;4986515;28;19948;-68
2021/12/28 03:57:27;;;;;;;;;;;9.90;99.90;;;;;;4984096;28;20132;-69
2021/12/28 03:59:54;;;;;;;;;;;9.90;99.90;;;;;;4974174;28;19948;-69
2021/12/28 04:02:20;;;;;;;;;;;9.90;99.90;;;;;;4982265;28;19932;-69
2021/12/28 04:04:48;;;;;;;;;;;9.90;99.90;;;;;;4982494;28;19961;-69
2021/12/28 04:07:19;;;;;;;;;;;9.90;99.90;;;;;;4990915;28;20328;-69
2021/12/28 04:10:01;;;;;;;;;;;9.90;99.90;;;;;;4984374;28;19934;-68
2021/12/28 04:12:28;;;;;;;;;;;10.00;99.90;;;;;;4992023;28;19934;-69
2021/12/28 04:14:55;;;;;;;;;;;9.90;99.90;;;;;;4980013;28;20615;-69
2021/12/28 04:17:21;;;;;;;;;;;10.00;99.90;;;;;;4993037;28;19932;-70
2021/12/28 04:19:49;;;;;;;;;;;10.00;99.90;;;;;;4989439;28;20020;-72
2021/12/28 04:22:16;;;;;;;;;;;10.00;99.90;;;;;;4977510;28;19933;-70
2021/12/28 04:24:43;;;;;;;;;;;10.00;99.90;;;;;;4983495;28;19925;-69
2021/12/28 04:27:10;;;;;;;;;;;10.00;99.90;;;;;;4991850;28;19925;-69
2021/12/28 04:29:36;;;;;;;;;;;10.00;99.90;;;;;;4989973;28;20289;-69
2021/12/28 04:32:03;;;;;;;;;;;10.00;99.90;;;;;;4990191;28;20028;-69
2021/12/28 04:34:30;;;;;;;;;;;10.00;99.90;;;;;;4987374;28;19933;-69
2021/12/28 04:36:58;;;;;;;;;;;10.00;99.90;;;;;;4990319;28;20307;-68
2021/12/28 04:39:25;;;;;;;;;;;10.00;99.90;;;;;;4989964;28;19929;-69
2021/12/28 04:41:52;;;;;;;;;;;10.00;99.90;;;;;;4985471;28;19926;-68
2021/12/28 04:44:23;;;;;;;;;;;9.90;99.90;;;;;;4988463;28;19926;-69
2021/12/28 04:46:51;;;;;;;;;;;9.90;99.90;;;;;;4990568;28;20333;-71
2021/12/28 04:49:19;;;;;;;;;;;9.90;99.90;;;;;;4979639;28;20005;-69
2021/12/28 04:51:46;;;;;;;;;;;9.90;99.90;;;;;;4982445;28;19984;-69
2021/12/28 04:54:14;;;;;;;;;;;9.90;99.90;;;;;;4981867;28;19929;-69
2021/12/28 04:56:41;;;;;;;;;;;9.90;99.90;;;;;;4988219;28;19929;-69
2021/12/28 04:59:08;;;;;;;;;;;9.90;99.90;;;;;;4983015;28;19981;-70
2021/12/28 05:01:36;;;;;;;;;;;9.90;99.90;;;;;;4978803;28;20017;-69
2021/12/28 05:04:03;;;;;;;;;;;9.90;99.90;;;;;;4982902;28;19926;-70
2021/12/28 05:06:30;;;;;;;;;;;9.90;99.90;;;;;;4988275;28;19930;-69
2021/12/28 05:08:57;;;;;;;;;;;9.80;99.90;;;;;;4988149;28;19932;-70
2021/12/28 05:11:25;;;;;;;;;;;9.90;99.90;;;;;;4987429;28;19930;-69
2021/12/28 05:13:51;;;;;;;;;;;9.80;99.90;;;;;;4990982;28;19969;-69
2021/12/28 05:16:18;;;;;;;;;;;9.80;99.90;;;;;;4990421;28;19926;-70
2021/12/28 05:18:45;;;;;;;;;;;9.80;99.90;;;;;;4991634;28;19977;-69
2021/12/28 05:21:12;;;;;;;;;;;9.80;99.90;;;;;;4975234;28;19980;-70
2021/12/28 05:23:38;;;;;;;;;;;9.80;99.90;;;;;;4987809;28;19926;-69
2021/12/28 05:26:05;;;;;;;;;;;9.70;99.90;;;;;;4976852;28;20013;-69
2021/12/28 05:28:33;;;;;;;;;;;9.80;99.90;;;;;;4991381;28;19959;-69
2021/12/28 05:31:00;;;;;;;;;;;9.80;99.90;;;;;;4993265;28;19929;-74
2021/12/28 05:33:26;;;;;;;;;;;9.70;99.90;;;;;;4987962;28;20393;-69
2021/12/28 05:35:54;;;;;;;;;;;9.70;99.90;;;;;;4981594;28;20374;-69
2021/12/28 05:38:21;;;;;;;;;;;9.70;99.90;;;;;;4986546;28;19969;-68
2021/12/28 05:40:48;;;;;;;;;;;9.70;99.90;;;;;;4991878;28;19966;-68
2021/12/28 05:43:15;;;;;;;;;;;9.70;99.90;;;;;;4983841;28;19972;-68
2021/12/28 05:45:43;;;;;;;;;;;9.70;99.90;;;;;;4982975;28;19926;-69
2021/12/28 05:48:09;;;;;;;;;;;9.70;99.90;;;;;;4976101;28;19936;-69
2021/12/28 05:50:36;;;;;;;;;;;9.70;99.90;;;;;;4981545;28;19926;-69
2021/12/28 05:53:03;;;;;;;;;;;9.60;99.90;;;;;;4982701;28;19932;-69
2021/12/28 05:55:30;;;;;;;;;;;9.60;99.90;;;;;;4980599;28;20020;-69
2021/12/28 05:57:57;;;;;;;;;;;9.60;99.90;;;;;;4984518;28;19933;-69
2021/12/28 06:00:23;;;;;;;;;;;9.60;99.90;;;;;;4985187;28;19969;-69
2021/12/28 06:02:51;;;;;;;;;;;9.60;99.90;;;;;;4977886;28;19932;-69
2021/12/28 06:05:18;;;;;;;;;;;9.60;99.90;;;;;;4979047;28;20496;-67
2021/12/28 06:07:45;;;;;;;;;;;9.60;99.90;;;;;;4980706;28;19934;-68
2021/12/28 06:10:11;;;;;;;;;;;9.60;99.90;;;;;;4973569;28;19940;-68
2021/12/28 06:12:38;;;;;;;;;;;9.60;99.90;;;;;;4976734;28;19926;-68
2021/12/28 06:15:05;;;;;;;;;;;9.60;99.90;;;;;;4977783;28;19934;-68
2021/12/28 06:17:32;;;;;;;;;;;9.60;99.90;;;;;;4975657;28;19926;-68
2021/12/28 06:20:00;;;;;;;;;;;9.60;99.90;;;;;;4972785;28;19926;-68
2021/12/28 06:22:26;;;;;;;;;;;9.60;99.90;;;;;;4986713;28;20305;-69
2021/12/28 06:24:53;;;;;;;;;;;9.60;99.90;;;;;;4981903;28;20419;-69
2021/12/28 06:27:22;;;;;;;;;;;9.60;99.90;;;;;;4981803;28;20072;-71
2021/12/28 06:29:48;;;;;;;;;;;9.60;99.90;;;;;;4984705;28;19948;-69
2021/12/28 06:32:15;;;;;;;;;;;9.60;99.90;;;;;;4978837;28;19934;-68
2021/12/28 06:34:42;;;;;;;;;;;9.60;99.90;;;;;;4992165;28;20017;-68
2021/12/28 06:37:10;;;;;;;;;;;9.50;99.90;;;;;;4982776;28;19926;-68
2021/12/28 06:39:36;;;;;;;;;;;9.60;99.90;;;;;;4976071;28;19926;-68
2021/12/28 06:42:03;;;;;;;;;;;9.50;99.90;;;;;;4979199;28;19964;-69
2021/12/28 06:44:30;;;;;;;;;;;9.50;99.90;;;;;;4975601;28;20453;-69
2021/12/28 06:46:57;;;;;;;;;;;9.50;99.90;;;;;;4983846;28;19981;-68
2021/12/28 06:49:23;;;;;;;;;;;9.50;99.90;;;;;;4994901;28;19926;-68
2021/12/28 06:51:50;;;;;;;;;;;9.50;99.90;;;;;;4990485;28;20024;-67
2021/12/28 06:54:18;;;;;;;;;;;9.50;99.90;;;;;;4980159;28;20366;-68
2021/12/28 06:56:45;;;;;;;;;;;9.50;99.90;;;;;;4975333;28;20041;-67
2021/12/28 06:59:13;;;;;;;;;;;9.50;99.90;;;;;;4981451;28;20036;-69
2021/12/28 07:01:39;;;;;;;;;;;9.50;99.90;;;;;;4984452;28;20008;-68
2021/12/28 07:04:06;;;;;;;;;;;9.50;99.90;;;;;;5001880;28;19947;-68
2021/12/28 07:06:33;;;;;;;;;;;9.50;99.90;;;;;;4985594;28;19929;-68
2021/12/28 07:08:59;;;;;;;;;;;9.50;99.90;;;;;;4976930;28;20359;-67
2021/12/28 07:11:28;;;;;;;;;;;9.50;99.90;;;;;;4989958;28;19926;-68
2021/12/28 07:13:54;;;;;;;;;;;9.50;99.90;;;;;;4985570;28;19926;-68
2021/12/28 07:16:21;;;;;;;;;;;9.50;99.90;;;;;;4980697;28;19964;-69
2021/12/28 07:18:48;;;;;;;;;;;9.50;99.90;;;;;;4983245;28;20337;-69
2021/12/28 07:21:15;;;;;;;;;;;9.50;99.90;;;;;;4981420;28;19925;-68
2021/12/28 07:23:42;;;;;;;;;;;9.60;99.90;;;;;;4981111;28;19926;-68
2021/12/28 07:26:08;;;;;;;;;;;9.60;99.90;;;;;;4985203;28;20024;-68
2021/12/28 07:28:36;;;;;;;;;;;9.60;99.90;;;;;;4978601;28;20464;-69
2021/12/28 07:31:03;;;;;;;;;;;9.60;99.90;;;;;;4986142;28;19932;-68
2021/12/28 07:33:33;;;;;;;;;;;9.60;99.90;;;;;;4984808;28;19944;-68
2021/12/28 07:35:59;;;;;;;;;;;9.60;99.90;;;;;;4985012;28;19936;-68
2021/12/28 07:38:26;;;;;;;;;;;9.60;99.90;;;;;;4985218;28;19934;-68
2021/12/28 07:40:53;;;;;;;;;;;9.70;99.90;;;;;;4987244;28;19936;-68
2021/12/28 07:43:19;;;;;;;;;;;9.70;99.90;;;;;;4984864;28;20055;-69
2021/12/28 07:45:48;;;;;;;;;;;9.70;99.90;;;;;;4979972;28;19932;-68
2021/12/28 07:48:14;;;;;;;;;;;9.70;99.90;;;;;;4983010;28;19934;-69
2021/12/28 07:50:41;;;;;;;;;;;9.70;99.90;;;;;;4989323;28;20017;-69
2021/12/28 07:53:08;;;;;;;;;;;9.70;99.90;;;;;;4981075;28;20381;-68
2021/12/28 07:55:35;;;;;;;;;;;9.70;99.90;;;;;;4988486;28;20095;-69
2021/12/28 07:58:02;;;;;;;;;;;9.70;99.90;;;;;;4985548;28;20008;-69
2021/12/28 08:00:28;;;;;;;;;;;9.70;99.90;;;;;;4986975;28;20451;-68
2021/12/28 08:02:57;;;;;;;;;;;9.70;99.90;;;;;;4980354;28;19934;-68
2021/12/28 08:05:24;;;;;;;;;;;9.80;99.90;;;;;;4969367;28;20030;-68
2021/12/28 08:07:50;;;;;;;;;;;9.80;99.90;;;;;;4973646;28;20448;-68
2021/12/28 08:10:17;;;;;;;;;;;9.80;99.90;;;;;;4975790;28;19933;-69
2021/12/28 08:12:46;;;;;;;;;;;9.80;99.90;;;;;;4976318;28;19977;-69
2021/12/28 08:15:13;;;;;;;;;;;9.80;99.90;;;;;;4983259;28;19933;-69
2021/12/28 08:17:39;;;;;;;;;;;9.80;99.90;;;;;;4986154;28;19933;-69
2021/12/28 08:20:11;;;;;;;;;;;9.80;99.90;;;;;;4979054;28;19930;-68
2021/12/28 08:22:38;;;;;;;;;;;9.90;99.90;;;;;;4980184;28;19926;-69
2021/12/28 08:25:05;;;;;;;;;;;9.80;99.90;;;;;;4976349;28;19933;-69
2021/12/28 08:27:32;;;;;;;;;;;9.90;99.90;;;;;;4983499;28;20013;-70
2021/12/28 08:29:58;;;;;;;;;;;9.90;99.90;;;;;;4990440;28;20116;-68
2021/12/28 08:32:25;;;;;;;;;;;9.90;99.90;;;;;;4980898;28;20037;-70
2021/12/28 08:34:52;;;;;;;;;;;9.90;99.90;;;;;;4978373;28;19933;-69
2021/12/28 08:37:20;;;;;;;;;;;10.00;99.90;;;;;;4986161;28;20029;-71
2021/12/28 08:39:46;;;;;;;;;;;9.90;99.90;;;;;;4983089;28;19929;-70
2021/12/28 08:42:13;;;;;;;;;;;9.90;99.90;;;;;;4980649;28;20098;-68
2021/12/28 08:44:40;;;;;;;;;;;9.90;99.90;;;;;;4975032;28;20000;-69
2021/12/28 08:47:07;;;;;;;;;;;10.00;99.90;;;;;;4975677;28;19926;-68
2021/12/28 08:49:33;;;;;;;;;;;10.00;99.90;;;;;;4986301;28;19976;-68
2021/12/28 08:52:00;;;;;;;;;;;10.00;99.90;;;;;;4983874;28;19934;-68
2021/12/28 08:54:28;;;;;;;;;;;10.10;99.90;;;;;;4980188;28;19926;-69
2021/12/28 08:56:55;;;;;;;;;;;10.10;99.90;;;;;;4979571;28;20365;-68
2021/12/28 08:59:22;;;;;;;;;;;10.20;99.90;;;;;;4984758;28;19926;-71
2021/12/28 09:01:49;;;;;;;;;;;10.20;99.90;;;;;;4974997;28;20376;-69
2021/12/28 09:04:17;;;;;;;;;;;10.30;99.90;;;;;;4979531;28;20286;-69
2021/12/28 09:06:44;;;;;;;;;;;10.30;99.90;;;;;;4970262;28;19934;-69
2021/12/28 09:09:14;;;;;;;;;;;10.30;99.90;;;;;;4980375;28;19930;-68
2021/12/28 09:11:43;;;;;;;;;;;10.40;99.90;;;;;;4976417;28;19957;-71
2021/12/28 09:14:10;;;;;;;;;;;10.40;99.90;;;;;;4992853;28;20025;-67
2021/12/28 09:16:37;;;;;;;;;;;10.40;99.90;;;;;;4981363;28;19969;-68
2021/12/28 09:19:04;;;;;;;;;;;10.50;99.90;;;;;;4977690;28;19926;-69
2021/12/28 09:21:30;;;;;;;;;;;10.50;99.90;;;;;;4980942;28;19926;-68
2021/12/28 09:23:57;;;;;;;;;;;10.60;99.90;;;;;;4972702;28;19926;-68
2021/12/28 09:26:24;;;;;;;;;;;10.70;99.90;;;;;;4974421;28;20427;-69
2021/12/28 09:29:05;;;;;;;;;;;10.80;99.90;;;;;;4969653;28;20032;-69
2021/12/28 09:31:33;;;;;;;;;;;10.80;99.90;;;;;;5013269;23;19929;-66
2021/12/28 09:34:00;;;;;;;;;;;10.80;99.90;;;;;;4997510;28;20041;-68
2021/12/28 09:36:27;;;;;;;;;;;10.80;99.90;;;;;;5001163;28;19957;-66
2021/12/28 09:38:54;;;;;;;;;;;10.80;99.90;;;;;;4981246;28;20328;-69
2021/12/28 09:41:21;;;;;;;;;;;10.70;99.90;;;;;;4979008;28;19936;-68
2021/12/28 09:43:47;;;;;;;;;;;10.70;99.90;;;;;;4979848;28;19937;-70
2021/12/28 09:46:16;;;;;;;;;;;10.70;99.90;;;;;;4980366;28;19960;-69
2021/12/28 09:48:42;;;;;;;;;;;10.60;99.90;;;;;;4986594;28;19943;-69
2021/12/28 09:51:09;;;;;;;;;;;10.60;99.90;;;;;;4981292;28;20021;-69
2021/12/28 09:53:38;;;;;;;;;;;10.60;99.90;;;;;;4979188;28;20656;-69
2021/12/28 09:56:05;;;;;;;;;;;10.70;99.90;;;;;;4976230;28;19936;-70
2021/12/28 09:58:33;;;;;;;;;;;10.60;99.90;;;;;;4985966;28;20388;-67
2021/12/28 10:01:00;;;;;;;;;;;10.60;99.90;;;;;;4990630;28;19969;-68
2021/12/28 10:03:28;;;;;;;;;;;10.60;99.90;;;;;;4990046;28;19949;-68
2021/12/28 10:05:55;;;;;;;;;;;10.50;99.90;;;;;;4992365;28;19933;-69
2021/12/28 10:08:23;;;;;;;;;;;10.50;99.90;;;;;;4993058;28;20349;-69
2021/12/28 10:10:49;;;;;;;;;;;10.50;99.90;;;;;;4995740;28;20172;-69
2021/12/28 10:13:20;;;;;;;;;;;10.50;99.90;;;;;;4990541;28;20029;-69
2021/12/28 10:15:48;;;;;;;;;;;10.50;99.90;;;;;;4989405;28;20278;-69
2021/12/28 10:18:15;;;;;;;;;;;10.50;99.90;;;;;;4992777;28;19926;-70
2021/12/28 10:20:44;;;;;;;;;;;10.50;99.90;;;;;;4990098;28;19940;-70
2021/12/28 10:23:13;;;;;;;;;;;10.50;99.90;;;;;;4985661;28;20071;-70
2021/12/28 10:25:41;;;;;;;;;;;10.40;99.90;;;;;;4983480;28;20116;-71
2021/12/28 10:28:09;;;;;;;;;;;10.40;99.90;;;;;;4983454;28;20764;-70
2021/12/28 10:30:38;;;;;;;;;;;10.30;99.90;;;;;;4988376;28;20037;-70
2021/12/28 10:33:07;;;;;;;;;;;10.20;99.90;;;;;;4985247;28;19941;-70
2021/12/28 10:35:34;;;;;;;;;;;10.20;99.90;;;;;;4989708;28;19926;-69
2021/12/28 10:38:05;;;;;;;;;;;10.20;99.90;;;;;;4986015;28;19940;-70
2021/12/28 10:40:33;;;;;;;;;;;10.20;99.90;;;;;;4986618;28;19926;-69
2021/12/28 10:43:03;;;;;;;;;;;10.20;99.90;;;;;;4986960;28;19929;-69
2021/12/28 10:45:36;;;;;;;;;;;10.30;99.90;;;;;;4991284;28;19926;-70
2021/12/28 10:48:04;;;;;;;;;;;10.30;99.90;;;;;;4986669;28;19929;-70
2021/12/28 10:50:34;;;;;;;;;;;10.40;99.90;;;;;;4988330;28;20360;-70
2021/12/28 10:53:07;;;;;;;;;;;10.50;99.90;;;;;;4978911;28;20438;-70
2021/12/28 10:55:34;;;;;;;;;;;10.50;99.90;;;;;;4986370;28;19972;-70
2021/12/28 10:58:02;;;;;;;;;;;10.60;99.90;;;;;;4976429;28;19941;-70
2021/12/28 11:00:30;;;;;;;;;;;10.80;99.90;;;;;;4980432;28;19926;-70
2021/12/28 11:03:15;;;;;;;;;;;10.90;99.90;;;;;;4988464;28;19926;-68
2021/12/28 11:05:43;;;;;;;;;;;10.90;99.90;;;;;;4990689;28;19934;-67
2021/12/28 11:08:11;;;;;;;;;;;11.00;99.90;;;;;;4981196;28;20373;-68
2021/12/28 11:10:42;;;;;;;;;;;11.00;99.90;;;;;;4989539;28;19933;-69
2021/12/28 11:13:09;;;;;;;;;;;10.90;99.90;;;;;;4983452;28;19940;-69
2021/12/28 11:15:37;;;;;;;;;;;10.90;99.90;;;;;;4982084;28;20445;-68
2021/12/28 11:18:16;;;;;;;;;;;10.90;99.90;;;;;;4983457;28;19926;-68
2021/12/28 11:20:44;;;;;;;;;;;11.00;99.90;;;;;;4984522;28;20051;-68
2021/12/28 11:23:12;;;;;;;;;;;10.90;99.90;;;;;;4979211;28;19926;-72
2021/12/28 11:25:39;;;;;;;;;;;10.90;99.90;;;;;;4982348;28;20376;-69
2021/12/28 11:28:13;;;;;;;;;;;10.90;99.90;;;;;;4975658;28;20048;-71
2021/12/28 11:30:40;;;;;;;;;;;10.90;99.90;;;;;;4987556;28;20385;-70
2021/12/28 11:33:08;;;;;;;;;;;10.90;99.90;;;;;;4985800;28;20405;-69
2021/12/28 11:35:35;;;;;;;;;;;10.90;99.90;;;;;;4978476;28;19952;-70
2021/12/28 11:38:02;;;;;;;;;;;10.90;99.90;;;;;;4979927;28;19944;-69
2021/12/28 11:40:30;;;;;;;;;;;11.00;99.90;;;;;;4979287;28;20167;-70
2021/12/28 11:42:56;;;;;;;;;;;11.00;99.90;;;;;;4975083;28;19946;-68
2021/12/28 11:45:24;;;;;;;;;;;11.00;99.90;;;;;;4979281;28;20022;-69
2021/12/28 11:47:50;;;;;;;;;;;11.00;99.90;;;;;;4974926;28;19934;-71
2021/12/28 11:50:17;;;;;;;;;;;11.10;99.90;;;;;;4983733;28;19932;-69
2021/12/28 11:52:44;;;;;;;;;;;11.10;99.90;;;;;;4977867;28;20009;-70
2021/12/28 11:55:11;;;;;;;;;;;11.10;99.90;;;;;;4977972;28;20013;-71
2021/12/28 11:57:48;;;;;;;;;;;11.10;99.90;;;;;;4978468;28;19925;-69
2021/12/28 12:00:17;;;;;;;;;;;11.20;99.90;;;;;;4982939;28;19938;-69
2021/12/28 12:02:45;;;;;;;;;;;11.20;99.90;;;;;;4979296;28;19973;-70
2021/12/28 12:05:13;;;;;;;;;;;11.10;99.90;;;;;;4982839;28;19934;-70
2021/12/28 12:07:40;;;;;;;;;;;11.00;99.90;;;;;;4982848;28;19936;-71
2021/12/28 12:10:11;;;;;;;;;;;11.00;99.90;;;;;;4986101;28;20084;-70
2021/12/28 12:12:54;;;;;;;;;;;11.00;99.90;;;;;;4980852;28;20415;-71
2021/12/28 12:15:22;;;;;;;;;;;11.00;99.90;;;;;;4984654;28;19980;-70
2021/12/28 12:17:49;;;;;;;;;;;11.10;99.90;;;;;;4981022;28;20029;-70
2021/12/28 12:20:23;;;;;;;;;;;11.00;99.90;;;;;;4978750;28;19937;-70
2021/12/28 12:22:51;;;;;;;;;;;11.00;99.90;;;;;;4982322;28;19934;-70
2021/12/28 12:25:19;;;;;;;;;;;11.10;99.90;;;;;;4986246;28;19934;-71
2021/12/28 12:27:47;;;;;;;;;;;11.30;99.90;;;;;;4985989;28;19988;-70
2021/12/28 12:30:33;;;;;;;;;;;11.30;99.90;;;;;;4984737;28;19929;-70
2021/12/28 12:33:05;;;;;;;;;;;11.20;99.90;;;;;;4982144;28;19925;-70
2021/12/28 12:35:32;;;;;;;;;;;11.20;99.90;;;;;;4977598;28;19937;-70
2021/12/28 12:38:00;;;;;;;;;;;11.10;99.90;;;;;;4980807;28;19969;-69
2021/12/28 12:40:41;;;;;;;;;;;11.10;99.90;;;;;;4971272;28;20017;-73
2021/12/28 12:43:11;;;;;;;;;;;11.00;99.90;;;;;;4982977;28;19973;-69
2021/12/28 12:45:57;;;;;;;;;;;10.90;99.90;;;;;;4989450;28;19962;-69
2021/12/28 12:48:31;;;;;;;;;;;10.90;99.90;;;;;;4983284;28;19930;-69
2021/12/28 12:51:13;;;;;;;;;;;10.70;99.90;;;;;;4980957;28;19934;-70
2021/12/28 12:53:43;;;;;;;;;;;10.50;99.90;;;;;;4984510;28;19983;-71
2021/12/28 12:56:14;;;;;;;;;;;10.00;99.90;;;;;;4983272;28;19932;-72
2021/12/28 12:58:41;;;;;;;;;;;9.60;99.90;;;;;;4986177;28;19926;-70
2021/12/28 13:01:18;;;;;;;;;;;9.10;99.90;;;;;;4985882;28;20016;-69
2021/12/28 13:03:46;;;;;;;;;;;8.80;99.90;;;;;;4984183;28;19944;-70
2021/12/28 13:06:13;;;;;;;;;;;8.50;99.90;;;;;;4983967;28;19932;-71
2021/12/28 13:08:39;;;;;;;;;;;8.40;99.90;;;;;;4987255;28;19957;-70
2021/12/28 13:11:06;;;;;;;;;;;8.30;99.90;;;;;;4982080;28;19932;-70
2021/12/28 13:13:35;;;;;;;;;;;8.20;99.90;;;;;;4984330;28;19933;-70
2021/12/28 13:16:07;;;;;;;;;;;8.10;99.90;;;;;;4981722;28;20037;-69
2021/12/28 13:18:33;;;;;;;;;;;8.00;99.90;;;;;;4980899;28;20093;-70
2021/12/28 13:21:01;;;;;;;;;;;7.90;99.90;;;;;;4977660;28;20919;-70
2021/12/28 13:23:28;;;;;;;;;;;7.90;99.90;;;;;;4977620;28;20409;-69
2021/12/28 13:25:56;;;;;;;;;;;7.90;99.90;;;;;;4981723;28;19932;-70
2021/12/28 13:28:24;;;;;;;;;;;7.90;99.90;;;;;;4979621;28;20291;-70
2021/12/28 13:30:51;;;;;;;;;;;8.00;99.90;;;;;;4986183;28;19934;-69
2021/12/28 13:33:20;;;;;;;;;;;8.00;99.90;;;;;;4982888;28;20410;-70
2021/12/28 13:35:48;;;;;;;;;;;8.10;99.90;;;;;;4983566;28;19933;-72
2021/12/28 13:38:17;;;;;;;;;;;8.20;99.90;;;;;;4982005;28;19952;-70
2021/12/28 13:40:45;;;;;;;;;;;8.20;99.90;;;;;;4981150;28;19938;-69
2021/12/28 13:43:14;;;;;;;;;;;8.30;99.90;;;;;;4983677;28;20461;-70
2021/12/28 13:45:42;;;;;;;;;;;8.30;99.90;;;;;;4987517;28;19933;-70
2021/12/28 13:48:13;;;;;;;;;;;8.30;99.90;;;;;;4985853;28;19977;-70
2021/12/28 13:50:40;;;;;;;;;;;8.40;99.90;;;;;;4988357;28;19980;-70
2021/12/28 13:53:11;;;;;;;;;;;8.40;99.90;;;;;;4986204;28;19934;-70
2021/12/28 13:55:39;;;;;;;;;;;8.40;99.90;;;;;;4985211;28;19941;-70
2021/12/28 13:58:18;;;;;;;;;;;8.50;99.90;;;;;;4983200;28;19977;-69
2021/12/28 14:00:48;;;;;;;;;;;8.50;99.90;;;;;;4982362;28;19972;-70
2021/12/28 14:03:15;;;;;;;;;;;8.50;99.90;;;;;;4974821;28;20327;-70
2021/12/28 14:05:42;;;;;;;;;;;8.50;99.90;;;;;;4982687;28;19930;-69
2021/12/28 14:08:13;;;;;;;;;;;8.50;99.90;;;;;;4982374;28;19932;-69
2021/12/28 14:10:41;;;;;;;;;;;8.50;99.90;;;;;;4984140;28;19930;-69
2021/12/28 14:13:10;;;;;;;;;;;8.50;99.90;;;;;;4982124;28;19926;-68
2021/12/28 14:15:53;;;;;;;;;;;8.50;99.90;;;;;;4982197;28;19926;-69
2021/12/28 14:18:25;;;;;;;;;;;8.60;99.90;;;;;;4981216;28;19930;-69
2021/12/28 14:20:52;;;;;;;;;;;8.60;99.90;;;;;;4981186;28;20453;-69
2021/12/28 14:23:26;;;;;;;;;;;8.70;99.90;;;;;;4985097;28;19933;-69
2021/12/28 14:26:04;;;;;;;;;;;8.70;99.90;;;;;;4982485;28;19929;-70
2021/12/28 14:28:31;;;;;;;;;;;8.80;99.90;;;;;;4978665;28;20008;-69